sensor_id;sensor_type;location;lat;lon;timestamp;temperature;humidity
7970;DHT22;4030;52.362;9.206;2023-06-24T00:01:50;20.10;81.10
7970;DHT22;4030;52.362;9.206;2023-06-24T00:04:16;20.10;81.20
7970;DHT22;4030;52.362;9.206;2023-06-24T00:06:44;20.10;81.20
7970;DHT22;4030;52.362;9.206;2023-06-24T00:09:10;20.00;81.10
7970;DHT22;4030;52.362;9.206;2023-06-24T00:11:35;20.00;81.20
7970;DHT22;4030;52.362;9.206;2023-06-24T00:14:01;20.00;81.30
7970;DHT22;4030;52.362;9.206;2023-06-24T00:16:27;20.00;81.40
7970;DHT22;4030;52.362;9.206;2023-06-24T00:18:56;19.90;81.30
7970;DHT22;4030;52.362;9.206;2023-06-24T00:21:24;19.90;81.50
7970;DHT22;4030;52.362;9.206;2023-06-24T00:23:55;19.90;81.60
7970;DHT22;4030;52.362;9.206;2023-06-24T00:26:22;19.90;81.60
7970;DHT22;4030;52.362;9.206;2023-06-24T00:28:47;19.80;81.60
7970;DHT22;4030;52.362;9.206;2023-06-24T00:31:13;19.80;81.70
7970;DHT22;4030;52.362;9.206;2023-06-24T00:33:39;19.80;81.80
7970;DHT22;4030;52.362;9.206;2023-06-24T00:36:04;19.80;81.80
7970;DHT22;4030;52.362;9.206;2023-06-24T00:38:32;19.80;81.80
7970;DHT22;4030;52.362;9.206;2023-06-24T00:40:58;19.70;82.10
7970;DHT22;4030;52.362;9.206;2023-06-24T00:43:24;19.70;81.90
7970;DHT22;4030;52.362;9.206;2023-06-24T00:45:50;19.70;82.00
7970;DHT22;4030;52.362;9.206;2023-06-24T00:48:18;19.70;82.00
7970;DHT22;4030;52.362;9.206;2023-06-24T00:50:45;19.70;82.00
7970;DHT22;4030;52.362;9.206;2023-06-24T00:53:11;19.60;81.90
7970;DHT22;4030;52.362;9.206;2023-06-24T00:55:37;19.60;81.90
7970;DHT22;4030;52.362;9.206;2023-06-24T00:58:03;19.60;81.80
7970;DHT22;4030;52.362;9.206;2023-06-24T01:00:29;19.60;81.90
7970;DHT22;4030;52.362;9.206;2023-06-24T01:02:58;19.60;81.90
7970;DHT22;4030;52.362;9.206;2023-06-24T01:05:24;19.50;81.80
7970;DHT22;4030;52.362;9.206;2023-06-24T01:07:52;19.50;81.80
7970;DHT22;4030;52.362;9.206;2023-06-24T01:10:22;19.50;81.80
7970;DHT22;4030;52.362;9.206;2023-06-24T01:12:49;19.50;81.80
7970;DHT22;4030;52.362;9.206;2023-06-24T01:15:15;19.50;81.80
7970;DHT22;4030;52.362;9.206;2023-06-24T01:18:02;19.50;81.90
7970;DHT22;4030;52.362;9.206;2023-06-24T01:29:34;19.40;81.90
7970;DHT22;4030;52.362;9.206;2023-06-24T01:32:54;19.40;81.90
7970;DHT22;4030;52.362;9.206;2023-06-24T01:35:30;19.30;81.90
7970;DHT22;4030;52.362;9.206;2023-06-24T01:38:00;19.30;82.00
7970;DHT22;4030;52.362;9.206;2023-06-24T01:40:37;19.30;82.00
7970;DHT22;4030;52.362;9.206;2023-06-24T01:43:06;19.30;82.10
7970;DHT22;4030;52.362;9.206;2023-06-24T01:45:45;19.30;82.20
7970;DHT22;4030;52.362;9.206;2023-06-24T01:48:21;19.20;82.20
7970;DHT22;4030;52.362;9.206;2023-06-24T01:50:57;19.20;82.30
7970;DHT22;4030;52.362;9.206;2023-06-24T01:53:24;19.20;82.40
7970;DHT22;4030;52.362;9.206;2023-06-24T01:55:54;19.40;82.60
7970;DHT22;4030;52.362;9.206;2023-06-24T01:58:22;19.20;82.50
7970;DHT22;4030;52.362;9.206;2023-06-24T02:00:48;19.10;82.40
7970;DHT22;4030;52.362;9.206;2023-06-24T02:03:15;19.10;82.50
7970;DHT22;4030;52.362;9.206;2023-06-24T02:05:41;19.10;82.50
7970;DHT22;4030;52.362;9.206;2023-06-24T02:08:09;19.00;82.50
7970;DHT22;4030;52.362;9.206;2023-06-24T02:10:39;19.00;82.50
7970;DHT22;4030;52.362;9.206;2023-06-24T02:13:08;19.00;82.50
7970;DHT22;4030;52.362;9.206;2023-06-24T02:15:35;19.00;82.60
7970;DHT22;4030;52.362;9.206;2023-06-24T02:18:02;19.00;83.50
7970;DHT22;4030;52.362;9.206;2023-06-24T02:20:31;19.00;82.70
7970;DHT22;4030;52.362;9.206;2023-06-24T02:22:57;18.90;82.70
7970;DHT22;4030;52.362;9.206;2023-06-24T02:25:25;18.90;82.00
7970;DHT22;4030;52.362;9.206;2023-06-24T02:27:53;18.90;82.70
7970;DHT22;4030;52.362;9.206;2023-06-24T02:30:20;18.80;82.70
7970;DHT22;4030;52.362;9.206;2023-06-24T02:32:46;18.80;82.70
7970;DHT22;4030;52.362;9.206;2023-06-24T02:35:12;18.90;82.90
7970;DHT22;4030;52.362;9.206;2023-06-24T02:37:38;18.80;82.80
7970;DHT22;4030;52.362;9.206;2023-06-24T02:40:04;18.80;82.80
7970;DHT22;4030;52.362;9.206;2023-06-24T02:42:32;18.80;82.90
7970;DHT22;4030;52.362;9.206;2023-06-24T02:44:58;18.80;83.00
7970;DHT22;4030;52.362;9.206;2023-06-24T02:47:24;18.70;82.90
7970;DHT22;4030;52.362;9.206;2023-06-24T02:49:50;18.70;82.90
7970;DHT22;4030;52.362;9.206;2023-06-24T02:52:16;18.70;82.90
7970;DHT22;4030;52.362;9.206;2023-06-24T02:54:43;18.70;83.00
7970;DHT22;4030;52.362;9.206;2023-06-24T02:57:09;18.70;83.10
7970;DHT22;4030;52.362;9.206;2023-06-24T02:59:36;18.60;83.00
7970;DHT22;4030;52.362;9.206;2023-06-24T03:02:03;18.60;83.00
7970;DHT22;4030;52.362;9.206;2023-06-24T03:04:30;18.60;83.10
7970;DHT22;4030;52.362;9.206;2023-06-24T03:06:56;18.60;83.10
7970;DHT22;4030;52.362;9.206;2023-06-24T03:09:24;18.60;83.10
7970;DHT22;4030;52.362;9.206;2023-06-24T03:11:51;18.60;83.10
7970;DHT22;4030;52.362;9.206;2023-06-24T03:14:17;18.60;83.10
7970;DHT22;4030;52.362;9.206;2023-06-24T03:16:43;18.50;83.10
7970;DHT22;4030;52.362;9.206;2023-06-24T03:19:08;18.60;83.20
7970;DHT22;4030;52.362;9.206;2023-06-24T03:21:34;18.50;83.10
7970;DHT22;4030;52.362;9.206;2023-06-24T03:24:00;18.50;83.10
7970;DHT22;4030;52.362;9.206;2023-06-24T03:26:36;18.50;83.20
7970;DHT22;4030;52.362;9.206;2023-06-24T03:29:03;18.50;83.20
7970;DHT22;4030;52.362;9.206;2023-06-24T03:31:29;18.50;83.20
7970;DHT22;4030;52.362;9.206;2023-06-24T03:33:55;18.50;83.20
7970;DHT22;4030;52.362;9.206;2023-06-24T03:36:21;18.50;83.30
7970;DHT22;4030;52.362;9.206;2023-06-24T03:38:47;18.50;83.30
7970;DHT22;4030;52.362;9.206;2023-06-24T03:41:12;18.40;83.20
7970;DHT22;4030;52.362;9.206;2023-06-24T03:43:39;18.50;83.30
7970;DHT22;4030;52.362;9.206;2023-06-24T03:46:07;18.50;83.30
7970;DHT22;4030;52.362;9.206;2023-06-24T03:48:33;18.40;83.30
7970;DHT22;4030;52.362;9.206;2023-06-24T03:50:59;18.40;83.30
7970;DHT22;4030;52.362;9.206;2023-06-24T03:53:24;18.40;83.30
7970;DHT22;4030;52.362;9.206;2023-06-24T03:55:50;18.40;83.30
7970;DHT22;4030;52.362;9.206;2023-06-24T03:58:15;18.40;83.30
7970;DHT22;4030;52.362;9.206;2023-06-24T04:00:42;18.40;83.40
7970;DHT22;4030;52.362;9.206;2023-06-24T04:03:09;18.40;83.40
7970;DHT22;4030;52.362;9.206;2023-06-24T04:05:35;18.40;83.40
7970;DHT22;4030;52.362;9.206;2023-06-24T04:08:01;18.40;83.40
7970;DHT22;4030;52.362;9.206;2023-06-24T04:10:31;18.40;83.40
7970;DHT22;4030;52.362;9.206;2023-06-24T04:12:56;18.50;83.50
7970;DHT22;4030;52.362;9.206;2023-06-24T04:15:22;18.40;83.40
7970;DHT22;4030;52.362;9.206;2023-06-24T04:17:48;18.50;83.60
7970;DHT22;4030;52.362;9.206;2023-06-24T04:20:14;18.50;83.60
7970;DHT22;4030;52.362;9.206;2023-06-24T04:22:40;18.50;83.60
7970;DHT22;4030;52.362;9.206;2023-06-24T04:25:07;18.50;83.60
7970;DHT22;4030;52.362;9.206;2023-06-24T04:27:34;18.50;83.60
7970;DHT22;4030;52.362;9.206;2023-06-24T04:30:01;18.50;83.60
7970;DHT22;4030;52.362;9.206;2023-06-24T04:32:27;18.50;83.60
7970;DHT22;4030;52.362;9.206;2023-06-24T04:34:53;18.50;83.70
7970;DHT22;4030;52.362;9.206;2023-06-24T04:37:18;18.50;83.70
7970;DHT22;4030;52.362;9.206;2023-06-24T04:39:44;18.60;83.80
7970;DHT22;4030;52.362;9.206;2023-06-24T04:42:11;18.60;83.90
7970;DHT22;4030;52.362;9.206;2023-06-24T04:44:37;18.60;84.20
7970;DHT22;4030;52.362;9.206;2023-06-24T04:47:03;18.60;83.90
7970;DHT22;4030;52.362;9.206;2023-06-24T04:49:28;18.60;83.90
7970;DHT22;4030;52.362;9.206;2023-06-24T04:51:54;18.70;84.00
7970;DHT22;4030;52.362;9.206;2023-06-24T04:54:20;18.70;84.00
7970;DHT22;4030;52.362;9.206;2023-06-24T04:56:45;18.70;84.00
7970;DHT22;4030;52.362;9.206;2023-06-24T04:59:13;18.70;84.10
7970;DHT22;4030;52.362;9.206;2023-06-24T05:01:39;18.70;84.00
7970;DHT22;4030;52.362;9.206;2023-06-24T05:04:05;18.80;84.70
7970;DHT22;4030;52.362;9.206;2023-06-24T05:06:30;18.80;84.20
7970;DHT22;4030;52.362;9.206;2023-06-24T05:08:56;18.80;84.20
7970;DHT22;4030;52.362;9.206;2023-06-24T05:11:22;18.80;84.20
7970;DHT22;4030;52.362;9.206;2023-06-24T05:13:47;18.80;84.30
7970;DHT22;4030;52.362;9.206;2023-06-24T05:16:13;18.90;84.40
7970;DHT22;4030;52.362;9.206;2023-06-24T05:18:39;18.90;84.50
7970;DHT22;4030;52.362;9.206;2023-06-24T05:21:04;18.90;84.50
7970;DHT22;4030;52.362;9.206;2023-06-24T05:23:30;19.00;84.60
7970;DHT22;4030;52.362;9.206;2023-06-24T05:25:56;19.00;84.50
7970;DHT22;4030;52.362;9.206;2023-06-24T05:28:21;19.00;84.40
7970;DHT22;4030;52.362;9.206;2023-06-24T05:30:47;19.10;84.60
7970;DHT22;4030;52.362;9.206;2023-06-24T05:33:13;19.10;84.50
7970;DHT22;4030;52.362;9.206;2023-06-24T05:35:38;19.20;84.50
7970;DHT22;4030;52.362;9.206;2023-06-24T05:38:06;19.20;84.50
7970;DHT22;4030;52.362;9.206;2023-06-24T05:40:31;19.20;84.40
7970;DHT22;4030;52.362;9.206;2023-06-24T05:42:57;19.30;84.40
7970;DHT22;4030;52.362;9.206;2023-06-24T05:45:23;19.30;85.30
7970;DHT22;4030;52.362;9.206;2023-06-24T05:47:48;19.30;84.30
7970;DHT22;4030;52.362;9.206;2023-06-24T05:50:14;19.40;84.40
7970;DHT22;4030;52.362;9.206;2023-06-24T05:52:40;19.40;84.30
7970;DHT22;4030;52.362;9.206;2023-06-24T05:55:06;19.50;84.30
7970;DHT22;4030;52.362;9.206;2023-06-24T05:57:31;19.50;84.20
7970;DHT22;4030;52.362;9.206;2023-06-24T05:59:57;19.60;84.20
7970;DHT22;4030;52.362;9.206;2023-06-24T06:02:23;19.60;84.00
7970;DHT22;4030;52.362;9.206;2023-06-24T06:04:50;19.70;83.90
7970;DHT22;4030;52.362;9.206;2023-06-24T06:07:16;19.80;84.00
7970;DHT22;4030;52.362;9.206;2023-06-24T06:09:42;19.80;83.80
7970;DHT22;4030;52.362;9.206;2023-06-24T06:12:08;19.90;83.90
7970;DHT22;4030;52.362;9.206;2023-06-24T06:14:34;19.90;83.90
7970;DHT22;4030;52.362;9.206;2023-06-24T06:17:00;20.00;84.10
7970;DHT22;4030;52.362;9.206;2023-06-24T06:19:25;20.10;84.40
7970;DHT22;4030;52.362;9.206;2023-06-24T06:21:51;20.10;84.30
7970;DHT22;4030;52.362;9.206;2023-06-24T06:24:17;20.20;84.40
7970;DHT22;4030;52.362;9.206;2023-06-24T06:26:43;20.30;84.30
7970;DHT22;4030;52.362;9.206;2023-06-24T06:29:10;20.30;84.30
7970;DHT22;4030;52.362;9.206;2023-06-24T06:31:36;20.40;84.30
7970;DHT22;4030;52.362;9.206;2023-06-24T06:34:02;20.50;84.40
7970;DHT22;4030;52.362;9.206;2023-06-24T06:36:28;20.50;84.30
7970;DHT22;4030;52.362;9.206;2023-06-24T06:38:54;20.60;84.90
7970;DHT22;4030;52.362;9.206;2023-06-24T06:41:19;20.60;85.40
7970;DHT22;4030;52.362;9.206;2023-06-24T06:43:50;20.60;85.50
7970;DHT22;4030;52.362;9.206;2023-06-24T06:46:16;20.60;85.60
7970;DHT22;4030;52.362;9.206;2023-06-24T06:48:42;20.70;85.50
7970;DHT22;4030;52.362;9.206;2023-06-24T06:51:08;20.70;85.40
7970;DHT22;4030;52.362;9.206;2023-06-24T06:53:33;20.70;85.30
7970;DHT22;4030;52.362;9.206;2023-06-24T06:55:59;20.70;84.30
7970;DHT22;4030;52.362;9.206;2023-06-24T06:58:25;20.80;83.60
7970;DHT22;4030;52.362;9.206;2023-06-24T07:00:50;20.80;82.90
7970;DHT22;4030;52.362;9.206;2023-06-24T07:03:16;20.90;82.90
7970;DHT22;4030;52.362;9.206;2023-06-24T07:05:42;20.90;82.80
7970;DHT22;4030;52.362;9.206;2023-06-24T07:08:08;20.90;82.40
7970;DHT22;4030;52.362;9.206;2023-06-24T07:10:33;21.00;82.40
7970;DHT22;4030;52.362;9.206;2023-06-24T07:12:59;21.00;81.50
7970;DHT22;4030;52.362;9.206;2023-06-24T07:15:25;21.10;80.40
7970;DHT22;4030;52.362;9.206;2023-06-24T07:17:51;21.20;79.90
7970;DHT22;4030;52.362;9.206;2023-06-24T07:20:19;21.20;79.80
7970;DHT22;4030;52.362;9.206;2023-06-24T07:23:07;21.20;79.90
7970;DHT22;4030;52.362;9.206;2023-06-24T07:25:32;21.30;80.10
7970;DHT22;4030;52.362;9.206;2023-06-24T07:27:59;21.40;79.90
7970;DHT22;4030;52.362;9.206;2023-06-24T07:30:25;21.50;80.10
7970;DHT22;4030;52.362;9.206;2023-06-24T07:32:51;21.60;80.40
7970;DHT22;4030;52.362;9.206;2023-06-24T07:35:16;21.70;80.30
7970;DHT22;4030;52.362;9.206;2023-06-24T07:37:44;21.70;79.90
7970;DHT22;4030;52.362;9.206;2023-06-24T07:40:10;21.80;79.90
7970;DHT22;4030;52.362;9.206;2023-06-24T07:42:36;21.90;79.50
7970;DHT22;4030;52.362;9.206;2023-06-24T07:45:02;22.00;79.20
7970;DHT22;4030;52.362;9.206;2023-06-24T07:47:28;22.10;79.20
7970;DHT22;4030;52.362;9.206;2023-06-24T07:49:53;22.20;79.10
7970;DHT22;4030;52.362;9.206;2023-06-24T07:52:19;22.40;79.10
7970;DHT22;4030;52.362;9.206;2023-06-24T07:54:45;22.50;79.10
7970;DHT22;4030;52.362;9.206;2023-06-24T07:57:10;22.60;79.00
7970;DHT22;4030;52.362;9.206;2023-06-24T07:59:36;22.70;78.90
7970;DHT22;4030;52.362;9.206;2023-06-24T08:02:02;22.80;78.70
7970;DHT22;4030;52.362;9.206;2023-06-24T08:04:28;22.90;78.70
7970;DHT22;4030;52.362;9.206;2023-06-24T08:06:53;23.00;78.60
7970;DHT22;4030;52.362;9.206;2023-06-24T08:09:19;23.20;78.60
7970;DHT22;4030;52.362;9.206;2023-06-24T08:11:45;23.30;78.30
7970;DHT22;4030;52.362;9.206;2023-06-24T08:14:11;23.40;78.10
7970;DHT22;4030;52.362;9.206;2023-06-24T08:16:37;23.50;78.00
7970;DHT22;4030;52.362;9.206;2023-06-24T08:19:03;23.60;77.80
7970;DHT22;4030;52.362;9.206;2023-06-24T08:21:28;23.70;77.50
7970;DHT22;4030;52.362;9.206;2023-06-24T08:23:55;23.70;77.30
7970;DHT22;4030;52.362;9.206;2023-06-24T08:26:20;23.80;77.20
7970;DHT22;4030;52.362;9.206;2023-06-24T08:28:49;24.00;77.10
7970;DHT22;4030;52.362;9.206;2023-06-24T08:31:14;24.10;76.90
7970;DHT22;4030;52.362;9.206;2023-06-24T08:33:44;24.20;76.80
7970;DHT22;4030;52.362;9.206;2023-06-24T08:36:11;24.30;76.70
7970;DHT22;4030;52.362;9.206;2023-06-24T08:38:36;24.40;76.70
7970;DHT22;4030;52.362;9.206;2023-06-24T08:41:02;24.50;76.90
7970;DHT22;4030;52.362;9.206;2023-06-24T08:43:28;24.70;77.20
7970;DHT22;4030;52.362;9.206;2023-06-24T08:45:54;24.80;77.20
7970;DHT22;4030;52.362;9.206;2023-06-24T08:48:20;24.90;77.10
7970;DHT22;4030;52.362;9.206;2023-06-24T08:50:51;25.00;77.00
7970;DHT22;4030;52.362;9.206;2023-06-24T08:53:19;25.10;76.80
7970;DHT22;4030;52.362;9.206;2023-06-24T08:55:46;25.20;76.50
7970;DHT22;4030;52.362;9.206;2023-06-24T08:58:13;25.30;76.10
7970;DHT22;4030;52.362;9.206;2023-06-24T09:00:39;25.40;75.70
7970;DHT22;4030;52.362;9.206;2023-06-24T09:03:04;25.50;75.30
7970;DHT22;4030;52.362;9.206;2023-06-24T09:05:30;25.60;74.70
7970;DHT22;4030;52.362;9.206;2023-06-24T09:07:56;25.70;74.00
7970;DHT22;4030;52.362;9.206;2023-06-24T09:10:36;25.80;73.50
7970;DHT22;4030;52.362;9.206;2023-06-24T09:13:03;25.90;73.20
7970;DHT22;4030;52.362;9.206;2023-06-24T09:15:34;26.00;73.10
7970;DHT22;4030;52.362;9.206;2023-06-24T09:18:01;26.20;73.40
7970;DHT22;4030;52.362;9.206;2023-06-24T09:20:33;26.20;73.30
7970;DHT22;4030;52.362;9.206;2023-06-24T09:23:04;26.30;73.20
7970;DHT22;4030;52.362;9.206;2023-06-24T09:25:31;26.50;73.10
7970;DHT22;4030;52.362;9.206;2023-06-24T09:28:03;26.60;72.80
7970;DHT22;4030;52.362;9.206;2023-06-24T09:30:29;26.70;72.00
7970;DHT22;4030;52.362;9.206;2023-06-24T09:32:55;26.80;71.20
7970;DHT22;4030;52.362;9.206;2023-06-24T09:35:23;26.90;70.80
7970;DHT22;4030;52.362;9.206;2023-06-24T09:37:59;27.00;70.60
7970;DHT22;4030;52.362;9.206;2023-06-24T09:40:24;27.10;70.00
7970;DHT22;4030;52.362;9.206;2023-06-24T09:42:58;27.10;69.10
7970;DHT22;4030;52.362;9.206;2023-06-24T09:45:29;27.10;67.20
7970;DHT22;4030;52.362;9.206;2023-06-24T09:47:56;27.10;67.20
7970;DHT22;4030;52.362;9.206;2023-06-24T09:50:23;27.10;67.60
7970;DHT22;4030;52.362;9.206;2023-06-24T09:52:49;27.10;67.70
7970;DHT22;4030;52.362;9.206;2023-06-24T09:55:17;27.10;67.10
7970;DHT22;4030;52.362;9.206;2023-06-24T09:57:45;27.10;67.30
7970;DHT22;4030;52.362;9.206;2023-06-24T10:00:18;27.20;67.60
7970;DHT22;4030;52.362;9.206;2023-06-24T10:02:45;27.30;67.10
7970;DHT22;4030;52.362;9.206;2023-06-24T10:05:13;27.30;66.20
7970;DHT22;4030;52.362;9.206;2023-06-24T10:07:40;27.30;66.10
7970;DHT22;4030;52.362;9.206;2023-06-24T10:10:07;27.40;65.70
7970;DHT22;4030;52.362;9.206;2023-06-24T10:12:36;27.40;65.60
7970;DHT22;4030;52.362;9.206;2023-06-24T10:15:03;27.50;66.20
7970;DHT22;4030;52.362;9.206;2023-06-24T10:17:30;27.60;64.20
7970;DHT22;4030;52.362;9.206;2023-06-24T10:19:56;27.50;61.70
7970;DHT22;4030;52.362;9.206;2023-06-24T10:22:22;27.50;63.30
7970;DHT22;4030;52.362;9.206;2023-06-24T10:24:53;27.60;63.70
7970;DHT22;4030;52.362;9.206;2023-06-24T10:27:21;27.70;64.60
7970;DHT22;4030;52.362;9.206;2023-06-24T10:29:51;27.80;64.90
7970;DHT22;4030;52.362;9.206;2023-06-24T10:32:19;27.90;63.90
7970;DHT22;4030;52.362;9.206;2023-06-24T10:34:47;28.10;64.50
7970;DHT22;4030;52.362;9.206;2023-06-24T10:37:19;28.20;64.80
7970;DHT22;4030;52.362;9.206;2023-06-24T10:39:54;28.20;62.70
7970;DHT22;4030;52.362;9.206;2023-06-24T10:42:43;28.30;62.40
7970;DHT22;4030;52.362;9.206;2023-06-24T10:47:38;28.50;62.10
7970;DHT22;4030;52.362;9.206;2023-06-24T10:50:05;28.70;60.20
7970;DHT22;4030;52.362;9.206;2023-06-24T10:52:32;28.70;61.10
7970;DHT22;4030;52.362;9.206;2023-06-24T10:54:58;28.80;60.80
7970;DHT22;4030;52.362;9.206;2023-06-24T10:57:27;28.90;59.80
7970;DHT22;4030;52.362;9.206;2023-06-24T10:59:54;29.00;59.90
7970;DHT22;4030;52.362;9.206;2023-06-24T11:02:23;29.10;59.60
7970;DHT22;4030;52.362;9.206;2023-06-24T11:04:51;29.20;60.10
7970;DHT22;4030;52.362;9.206;2023-06-24T11:07:22;29.30;59.70
7970;DHT22;4030;52.362;9.206;2023-06-24T11:09:54;29.40;60.60
7970;DHT22;4030;52.362;9.206;2023-06-24T11:12:30;29.50;59.60
7970;DHT22;4030;52.362;9.206;2023-06-24T11:14:57;29.70;59.00
7970;DHT22;4030;52.362;9.206;2023-06-24T11:17:24;29.70;57.30
7970;DHT22;4030;52.362;9.206;2023-06-24T11:19:52;29.70;59.00
7970;DHT22;4030;52.362;9.206;2023-06-24T11:22:18;29.50;59.60
7970;DHT22;4030;52.362;9.206;2023-06-24T11:24:44;29.40;60.30
7970;DHT22;4030;52.362;9.206;2023-06-24T11:27:10;29.40;60.00
7970;DHT22;4030;52.362;9.206;2023-06-24T11:29:36;29.40;59.20
7970;DHT22;4030;52.362;9.206;2023-06-24T11:32:02;29.40;59.00
7970;DHT22;4030;52.362;9.206;2023-06-24T11:34:33;29.60;58.10
7970;DHT22;4030;52.362;9.206;2023-06-24T11:36:58;29.70;56.30
7970;DHT22;4030;52.362;9.206;2023-06-24T11:39:26;29.80;56.10
7970;DHT22;4030;52.362;9.206;2023-06-24T11:41:53;30.00;56.20
7970;DHT22;4030;52.362;9.206;2023-06-24T11:44:24;30.30;57.60
7970;DHT22;4030;52.362;9.206;2023-06-24T11:46:50;30.30;55.90
7970;DHT22;4030;52.362;9.206;2023-06-24T11:49:16;30.40;55.50
7970;DHT22;4030;52.362;9.206;2023-06-24T11:51:47;30.50;55.90
7970;DHT22;4030;52.362;9.206;2023-06-24T11:54:20;30.60;55.60
7970;DHT22;4030;52.362;9.206;2023-06-24T11:56:50;30.60;55.30
7970;DHT22;4030;52.362;9.206;2023-06-24T11:59:21;30.60;56.20
7970;DHT22;4030;52.362;9.206;2023-06-24T12:01:55;30.70;55.40
7970;DHT22;4030;52.362;9.206;2023-06-24T12:04:27;30.80;56.90
7970;DHT22;4030;52.362;9.206;2023-06-24T12:06:54;30.90;55.90
7970;DHT22;4030;52.362;9.206;2023-06-24T12:09:19;31.10;56.10
7970;DHT22;4030;52.362;9.206;2023-06-24T12:11:45;31.20;56.00
7970;DHT22;4030;52.362;9.206;2023-06-24T12:14:11;31.40;55.40
7970;DHT22;4030;52.362;9.206;2023-06-24T12:16:37;31.40;54.80
7970;DHT22;4030;52.362;9.206;2023-06-24T12:19:03;31.50;54.70
7970;DHT22;4030;52.362;9.206;2023-06-24T12:21:29;31.50;54.00
7970;DHT22;4030;52.362;9.206;2023-06-24T12:23:55;31.60;53.50
7970;DHT22;4030;52.362;9.206;2023-06-24T12:26:20;31.70;53.30
7970;DHT22;4030;52.362;9.206;2023-06-24T12:28:46;31.90;52.20
7970;DHT22;4030;52.362;9.206;2023-06-24T12:31:12;32.10;52.20
7970;DHT22;4030;52.362;9.206;2023-06-24T12:33:37;32.20;51.90
7970;DHT22;4030;52.362;9.206;2023-06-24T12:36:03;32.30;51.50
7970;DHT22;4030;52.362;9.206;2023-06-24T12:38:29;32.50;51.40
7970;DHT22;4030;52.362;9.206;2023-06-24T12:40:56;32.50;50.80
7970;DHT22;4030;52.362;9.206;2023-06-24T12:43:22;32.50;50.20
7970;DHT22;4030;52.362;9.206;2023-06-24T12:45:47;32.50;50.20
7970;DHT22;4030;52.362;9.206;2023-06-24T12:48:14;32.30;50.50
7970;DHT22;4030;52.362;9.206;2023-06-24T12:50:39;32.30;50.70
7970;DHT22;4030;52.362;9.206;2023-06-24T12:53:05;32.30;51.10
7970;DHT22;4030;52.362;9.206;2023-06-24T12:55:31;32.50;51.80
7970;DHT22;4030;52.362;9.206;2023-06-24T12:57:57;32.60;51.80
7970;DHT22;4030;52.362;9.206;2023-06-24T13:00:24;32.70;51.80
7970;DHT22;4030;52.362;9.206;2023-06-24T13:02:50;32.90;51.60
7970;DHT22;4030;52.362;9.206;2023-06-24T13:05:16;32.90;51.50
7970;DHT22;4030;52.362;9.206;2023-06-24T13:07:43;32.90;51.70
7970;DHT22;4030;52.362;9.206;2023-06-24T13:10:09;32.90;51.90
7970;DHT22;4030;52.362;9.206;2023-06-24T13:12:35;32.90;51.80
7970;DHT22;4030;52.362;9.206;2023-06-24T13:15:03;33.00;51.90
7970;DHT22;4030;52.362;9.206;2023-06-24T13:17:32;33.10;51.50
7970;DHT22;4030;52.362;9.206;2023-06-24T13:19:58;33.00;51.60
7970;DHT22;4030;52.362;9.206;2023-06-24T13:22:24;32.80;51.40
7970;DHT22;4030;52.362;9.206;2023-06-24T13:24:50;32.70;51.80
7970;DHT22;4030;52.362;9.206;2023-06-24T13:27:16;32.60;51.60
7970;DHT22;4030;52.362;9.206;2023-06-24T13:29:42;32.80;52.00
7970;DHT22;4030;52.362;9.206;2023-06-24T13:32:08;32.80;52.10
7970;DHT22;4030;52.362;9.206;2023-06-24T13:34:34;32.90;52.10
7970;DHT22;4030;52.362;9.206;2023-06-24T13:37:00;33.00;52.10
7970;DHT22;4030;52.362;9.206;2023-06-24T13:39:26;33.20;52.10
7970;DHT22;4030;52.362;9.206;2023-06-24T13:41:52;33.30;51.90
7970;DHT22;4030;52.362;9.206;2023-06-24T13:44:18;33.50;51.50
7970;DHT22;4030;52.362;9.206;2023-06-24T13:46:44;33.60;50.10
7970;DHT22;4030;52.362;9.206;2023-06-24T13:49:10;33.70;49.50
7970;DHT22;4030;52.362;9.206;2023-06-24T13:51:36;33.70;49.70
7970;DHT22;4030;52.362;9.206;2023-06-24T13:54:02;33.90;49.50
7970;DHT22;4030;52.362;9.206;2023-06-24T13:56:28;34.00;49.40
7970;DHT22;4030;52.362;9.206;2023-06-24T13:58:55;34.10;49.30
7970;DHT22;4030;52.362;9.206;2023-06-24T14:01:21;34.20;49.00
7970;DHT22;4030;52.362;9.206;2023-06-24T14:03:48;34.20;48.50
7970;DHT22;4030;52.362;9.206;2023-06-24T14:06:15;33.90;48.80
7970;DHT22;4030;52.362;9.206;2023-06-24T14:08:43;33.80;49.10
7970;DHT22;4030;52.362;9.206;2023-06-24T14:11:09;33.70;49.50
7970;DHT22;4030;52.362;9.206;2023-06-24T14:13:35;33.60;49.80
7970;DHT22;4030;52.362;9.206;2023-06-24T14:16:02;33.60;49.70
7970;DHT22;4030;52.362;9.206;2023-06-24T14:18:28;33.60;49.40
7970;DHT22;4030;52.362;9.206;2023-06-24T14:20:57;33.70;49.60
7970;DHT22;4030;52.362;9.206;2023-06-24T14:23:23;34.00;49.30
7970;DHT22;4030;52.362;9.206;2023-06-24T14:25:51;33.90;48.80
7970;DHT22;4030;52.362;9.206;2023-06-24T14:28:17;34.10;49.00
7970;DHT22;4030;52.362;9.206;2023-06-24T14:30:43;34.10;48.50
7970;DHT22;4030;52.362;9.206;2023-06-24T14:33:08;34.10;48.40
7970;DHT22;4030;52.362;9.206;2023-06-24T14:35:34;34.10;48.00
7970;DHT22;4030;52.362;9.206;2023-06-24T14:38:00;33.80;48.30
7970;DHT22;4030;52.362;9.206;2023-06-24T14:40:26;33.80;48.30
7970;DHT22;4030;52.362;9.206;2023-06-24T14:42:52;33.80;47.90
7970;DHT22;4030;52.362;9.206;2023-06-24T14:45:17;33.60;48.30
7970;DHT22;4030;52.362;9.206;2023-06-24T14:47:43;33.60;48.50
7970;DHT22;4030;52.362;9.206;2023-06-24T14:50:09;33.60;48.60
7970;DHT22;4030;52.362;9.206;2023-06-24T14:52:35;33.50;48.70
7970;DHT22;4030;52.362;9.206;2023-06-24T14:55:01;33.30;49.00
7970;DHT22;4030;52.362;9.206;2023-06-24T14:57:27;33.30;49.30
7970;DHT22;4030;52.362;9.206;2023-06-24T14:59:52;33.10;49.50
7970;DHT22;4030;52.362;9.206;2023-06-24T15:02:18;33.00;49.90
7970;DHT22;4030;52.362;9.206;2023-06-24T15:04:44;32.90;50.10
7970;DHT22;4030;52.362;9.206;2023-06-24T15:07:10;32.70;49.90
7970;DHT22;4030;52.362;9.206;2023-06-24T15:09:35;32.80;49.70
7970;DHT22;4030;52.362;9.206;2023-06-24T15:12:02;32.80;49.80
7970;DHT22;4030;52.362;9.206;2023-06-24T15:14:28;32.70;49.90
7970;DHT22;4030;52.362;9.206;2023-06-24T15:16:53;32.70;50.00
7970;DHT22;4030;52.362;9.206;2023-06-24T15:19:23;32.70;50.20
7970;DHT22;4030;52.362;9.206;2023-06-24T15:21:48;32.80;50.40
7970;DHT22;4030;52.362;9.206;2023-06-24T15:24:14;32.60;50.20
7970;DHT22;4030;52.362;9.206;2023-06-24T15:26:40;32.60;50.20
7970;DHT22;4030;52.362;9.206;2023-06-24T15:29:05;32.60;50.40
7970;DHT22;4030;52.362;9.206;2023-06-24T15:31:31;32.50;50.20
7970;DHT22;4030;52.362;9.206;2023-06-24T15:33:57;32.40;50.40
7970;DHT22;4030;52.362;9.206;2023-06-24T15:36:23;32.30;50.40
7970;DHT22;4030;52.362;9.206;2023-06-24T15:38:52;32.30;50.20
7970;DHT22;4030;52.362;9.206;2023-06-24T15:41:18;32.20;49.50
7970;DHT22;4030;52.362;9.206;2023-06-24T15:43:44;32.20;50.00
7970;DHT22;4030;52.362;9.206;2023-06-24T15:46:10;32.10;50.20
7970;DHT22;4030;52.362;9.206;2023-06-24T15:48:35;32.00;50.40
7970;DHT22;4030;52.362;9.206;2023-06-24T15:51:04;32.00;50.70
7970;DHT22;4030;52.362;9.206;2023-06-24T15:53:31;31.90;50.90
7970;DHT22;4030;52.362;9.206;2023-06-24T15:55:56;31.90;51.30
7970;DHT22;4030;52.362;9.206;2023-06-24T15:58:22;31.80;52.00
7970;DHT22;4030;52.362;9.206;2023-06-24T16:00:48;31.70;51.40
7970;DHT22;4030;52.362;9.206;2023-06-24T16:03:13;31.60;51.40
7970;DHT22;4030;52.362;9.206;2023-06-24T16:05:39;31.50;51.10
7970;DHT22;4030;52.362;9.206;2023-06-24T16:08:05;31.50;51.30
7970;DHT22;4030;52.362;9.206;2023-06-24T16:10:30;31.40;50.30
7970;DHT22;4030;52.362;9.206;2023-06-24T16:12:56;31.20;50.40